Time;durP1;ratioP1;P1;durP2;ratioP2;P2;SDS_P1;SDS_P2;PMS_P1;PMS_P2;Temp;Humidity;BMP_temperature;BMP_pressure;BME280_temperature;BME280_humidity;BME280_pressure;Samples;Min_cycle;Max_cycle;Signal;HPM_P1;HPM_P2
2023/12/26 00:00:56;;;;;;;5.50;2.33;;;;;;;;;;4976604;28;20049;-83
2023/12/26 00:03:22;;;;;;;6.45;2.60;;;;;;;;;;4987816;28;20056;-84
2023/12/26 00:05:50;;;;;;;5.18;2.38;;;;;;;;;;4970085;28;20100;-84
2023/12/26 00:08:16;;;;;;;4.65;2.45;;;;;;;;;;4971059;28;20114;-81
2023/12/26 00:10:42;;;;;;;6.22;2.50;;;;;;;;;;4988011;28;20154;-80
2023/12/26 00:13:08;;;;;;;7.28;3.25;;;;;;;;;;4973108;28;20424;-80
2023/12/26 00:15:34;;;;;;;6.15;2.53;;;;;;;;;;4988736;28;20073;-78
2023/12/26 00:18:00;;;;;;;5.13;2.05;;;;;;;;;;4973352;28;20084;-78
2023/12/26 00:20:27;;;;;;;4.95;2.30;;;;;;;;;;4970214;28;20054;-79
2023/12/26 00:22:53;;;;;;;5.22;3.20;;;;;;;;;;4987113;28;20386;-78
2023/12/26 00:25:19;;;;;;;7.30;3.28;;;;;;;;;;4969960;28;20096;-80
2023/12/26 00:27:45;;;;;;;5.15;2.80;;;;;;;;;;4985515;28;20505;-80
2023/12/26 00:30:12;;;;;;;4.50;2.65;;;;;;;;;;4984758;28;20068;-81
2023/12/26 00:32:38;;;;;;;5.43;2.70;;;;;;;;;;4957073;28;20169;-79
2023/12/26 00:35:04;;;;;;;4.75;2.72;;;;;;;;;;4978272;28;20064;-80
2023/12/26 00:37:31;;;;;;;5.55;2.40;;;;;;;;;;4957437;28;20053;-80
2023/12/26 00:39:57;;;;;;;7.38;2.80;;;;;;;;;;4981121;28;20456;-80
2023/12/26 00:42:24;;;;;;;6.30;3.03;;;;;;;;;;4984250;28;20044;-80
2023/12/26 00:44:50;;;;;;;3.42;2.20;;;;;;;;;;4981216;28;20210;-80
2023/12/26 00:47:16;;;;;;;5.28;2.35;;;;;;;;;;4987438;28;20048;-82
2023/12/26 00:49:42;;;;;;;4.10;1.95;;;;;;;;;;4981727;28;20042;-79
2023/12/26 00:52:08;;;;;;;5.15;2.40;;;;;;;;;;4983908;28;20498;-80
2023/12/26 00:54:36;;;;;;;7.60;2.15;;;;;;;;;;4968893;28;20046;-80
2023/12/26 00:57:02;;;;;;;7.13;2.78;;;;;;;;;;4968630;28;20513;-80
2023/12/26 00:59:28;;;;;;;3.80;2.08;;;;;;;;;;4988230;28;20085;-81
2023/12/26 01:01:57;;;;;;;3.83;2.10;;;;;;;;;;4987104;28;20035;-81
2023/12/26 01:04:23;;;;;;;2.53;1.70;;;;;;;;;;4972350;28;20054;-80
2023/12/26 01:06:49;;;;;;;5.03;2.22;;;;;;;;;;4986271;28;20072;-80
2023/12/26 01:09:15;;;;;;;8.25;3.65;;;;;;;;;;4950075;28;20128;-80
2023/12/26 01:11:41;;;;;;;4.40;1.83;;;;;;;;;;4983646;28;20050;-82
2023/12/26 01:14:07;;;;;;;2.35;1.35;;;;;;;;;;4971442;28;20072;-81
2023/12/26 01:16:33;;;;;;;4.82;1.60;;;;;;;;;;4987632;28;20052;-80
2023/12/26 01:18:59;;;;;;;4.50;1.95;;;;;;;;;;4969352;28;20045;-82
2023/12/26 01:21:25;;;;;;;10.10;2.03;;;;;;;;;;4971375;28;20050;-81
2023/12/26 01:23:52;;;;;;;3.53;1.50;;;;;;;;;;4982113;28;20096;-81
2023/12/26 01:26:19;;;;;;;6.45;1.40;;;;;;;;;;4979226;28;20080;-82
2023/12/26 01:28:45;;;;;;;5.10;1.30;;;;;;;;;;4980794;28;20037;-79
2023/12/26 01:31:11;;;;;;;7.68;1.33;;;;;;;;;;4984104;28;21088;-82
2023/12/26 01:33:37;;;;;;;5.10;1.38;;;;;;;;;;4983733;28;20049;-79
2023/12/26 01:36:03;;;;;;;3.10;1.35;;;;;;;;;;4985631;28;20100;-80
2023/12/26 01:38:29;;;;;;;5.28;1.50;;;;;;;;;;4982089;28;20045;-81
2023/12/26 01:40:55;;;;;;;8.63;1.67;;;;;;;;;;4985806;28;20061;-81
2023/12/26 01:43:21;;;;;;;6.78;1.50;;;;;;;;;;4984380;28;20077;-80
2023/12/26 01:45:48;;;;;;;5.55;1.60;;;;;;;;;;4984824;28;20130;-83
2023/12/26 01:48:14;;;;;;;9.23;1.52;;;;;;;;;;4969355;28;20700;-84
2023/12/26 01:50:40;;;;;;;8.65;1.88;;;;;;;;;;4975679;28;20037;-80
2023/12/26 01:53:06;;;;;;;8.60;1.92;;;;;;;;;;4970290;28;20041;-81
2023/12/26 01:55:32;;;;;;;12.00;1.67;;;;;;;;;;4967728;28;20510;-80
2023/12/26 01:57:58;;;;;;;11.15;1.98;;;;;;;;;;4955635;28;20511;-80
2023/12/26 02:00:25;;;;;;;12.40;2.42;;;;;;;;;;4982726;28;20034;-79
2023/12/26 02:02:54;;;;;;;19.75;2.33;;;;;;;;;;4974306;28;20079;-81
2023/12/26 02:05:21;;;;;;;17.17;2.45;;;;;;;;;;4987312;28;20049;-82
2023/12/26 02:07:47;;;;;;;19.65;2.33;;;;;;;;;;4994691;28;20086;-80
2023/12/26 02:10:13;;;;;;;13.10;2.30;;;;;;;;;;4968080;28;20482;-81
2023/12/26 02:12:39;;;;;;;15.23;2.42;;;;;;;;;;4967466;28;20164;-80
2023/12/26 02:15:06;;;;;;;20.38;2.10;;;;;;;;;;4985564;28;20038;-80
2023/12/26 02:17:32;;;;;;;17.80;1.90;;;;;;;;;;4982147;28;20403;-80
2023/12/26 02:19:58;;;;;;;14.95;2.63;;;;;;;;;;4988119;28;20053;-82
2023/12/26 02:22:24;;;;;;;16.70;2.05;;;;;;;;;;4970255;28;20052;-80
2023/12/26 02:24:50;;;;;;;12.75;2.08;;;;;;;;;;4981257;28;20042;-80
2023/12/26 02:27:18;;;;;;;23.77;2.83;;;;;;;;;;4968988;28;20069;-81
2023/12/26 02:29:45;;;;;;;20.60;2.03;;;;;;;;;;4966388;28;20514;-82
2023/12/26 02:32:13;;;;;;;9.18;1.75;;;;;;;;;;4971751;28;20046;-82
2023/12/26 02:34:39;;;;;;;13.88;2.05;;;;;;;;;;4986028;28;20101;-82
2023/12/26 02:37:05;;;;;;;15.57;2.65;;;;;;;;;;4986785;28;20061;-82
2023/12/26 02:39:31;;;;;;;20.15;2.50;;;;;;;;;;4968910;28;20517;-82
2023/12/26 02:41:57;;;;;;;15.27;2.90;;;;;;;;;;4985040;28;20052;-83
2023/12/26 02:44:24;;;;;;;13.88;2.47;;;;;;;;;;4985456;28;20045;-83
2023/12/26 02:46:50;;;;;;;15.48;2.20;;;;;;;;;;4982202;28;20037;-82
2023/12/26 02:49:16;;;;;;;14.95;2.88;;;;;;;;;;4957320;28;20042;-81
2023/12/26 02:51:42;;;;;;;22.23;3.13;;;;;;;;;;4986072;28;20049;-81
2023/12/26 02:54:08;;;;;;;11.82;2.80;;;;;;;;;;4987344;28;20088;-80
2023/12/26 02:56:34;;;;;;;24.70;3.22;;;;;;;;;;4971827;28;20439;-81
2023/12/26 02:59:00;;;;;;;23.92;2.67;;;;;;;;;;4985945;28;20049;-82
2023/12/26 03:01:26;;;;;;;17.10;2.70;;;;;;;;;;4975016;28;20050;-81
2023/12/26 03:03:52;;;;;;;31.33;5.43;;;;;;;;;;4974394;28;20042;-81
2023/12/26 03:06:18;;;;;;;13.85;2.92;;;;;;;;;;4961436;28;20041;-80
2023/12/26 03:08:44;;;;;;;23.02;2.75;;;;;;;;;;4987130;28;20041;-82
2023/12/26 03:11:11;;;;;;;15.52;4.05;;;;;;;;;;4970864;28;20030;-81
2023/12/26 03:13:37;;;;;;;21.75;3.10;;;;;;;;;;4988986;28;20042;-81
2023/12/26 03:16:03;;;;;;;13.70;2.72;;;;;;;;;;4995753;28;20497;-80
2023/12/26 03:18:29;;;;;;;20.73;2.92;;;;;;;;;;4991910;28;20177;-80
2023/12/26 03:20:55;;;;;;;21.33;4.15;;;;;;;;;;4957468;28;20042;-80
2023/12/26 03:23:21;;;;;;;16.20;2.50;;;;;;;;;;4991379;28;20043;-80
2023/12/26 03:25:47;;;;;;;22.00;3.42;;;;;;;;;;4994473;28;20034;-80
2023/12/26 03:28:13;;;;;;;19.73;3.00;;;;;;;;;;4992491;28;20038;-80
2023/12/26 03:30:39;;;;;;;14.65;2.65;;;;;;;;;;4992216;28;20030;-81
2023/12/26 03:33:06;;;;;;;14.10;2.70;;;;;;;;;;4996878;28;20080;-80
2023/12/26 03:35:32;;;;;;;19.30;2.67;;;;;;;;;;4964933;28;20090;-81
2023/12/26 03:37:58;;;;;;;24.98;2.60;;;;;;;;;;4994735;28;20048;-84
2023/12/26 03:40:24;;;;;;;21.15;3.53;;;;;;;;;;4977485;28;20094;-83
2023/12/26 03:42:50;;;;;;;19.40;2.75;;;;;;;;;;4992038;28;20340;-83
2023/12/26 03:45:17;;;;;;;10.13;2.67;;;;;;;;;;4993943;28;20128;-84
2023/12/26 03:47:43;;;;;;;20.95;3.30;;;;;;;;;;4992818;28;20541;-83
2023/12/26 03:50:10;;;;;;;18.00;3.15;;;;;;;;;;4992528;28;20158;-82
2023/12/26 03:52:37;;;;;;;17.45;2.80;;;;;;;;;;4979031;28;20049;-82
2023/12/26 03:55:03;;;;;;;20.13;2.40;;;;;;;;;;4990270;28;20501;-82
2023/12/26 03:57:30;;;;;;;17.38;2.47;;;;;;;;;;4994553;28;20378;-83
2023/12/26 03:59:56;;;;;;;10.00;2.03;;;;;;;;;;4989822;28;20172;-82
2023/12/26 04:02:22;;;;;;;23.02;3.10;;;;;;;;;;4989222;28;20037;-84
2023/12/26 04:04:49;;;;;;;13.10;2.28;;;;;;;;;;4960486;28;20391;-82
2023/12/26 04:07:15;;;;;;;17.77;2.45;;;;;;;;;;4989768;28;20787;-81
2023/12/26 04:09:41;;;;;;;15.75;2.70;;;;;;;;;;4991609;28;20042;-82
2023/12/26 04:12:08;;;;;;;16.70;2.92;;;;;;;;;;4992682;28;20379;-83
2023/12/26 04:14:34;;;;;;;17.13;2.83;;;;;;;;;;4975909;28;20103;-83
2023/12/26 04:17:00;;;;;;;16.23;3.03;;;;;;;;;;4993568;28;20053;-81
2023/12/26 04:19:26;;;;;;;19.30;2.70;;;;;;;;;;4975324;28;20485;-80
2023/12/26 04:21:52;;;;;;;24.75;3.45;;;;;;;;;;4987919;28;20038;-81
2023/12/26 04:24:19;;;;;;;19.38;3.03;;;;;;;;;;4990221;28;20103;-81
2023/12/26 04:26:45;;;;;;;17.45;2.63;;;;;;;;;;4990227;28;21049;-81
2023/12/26 04:29:11;;;;;;;28.67;3.90;;;;;;;;;;4970355;28;20034;-82
2023/12/26 04:31:37;;;;;;;20.27;2.78;;;;;;;;;;4990981;28;20064;-80
2023/12/26 04:34:03;;;;;;;20.20;3.17;;;;;;;;;;4975895;28;20045;-82
2023/12/26 04:36:33;;;;;;;20.20;2.83;;;;;;;;;;4980160;28;20052;-82
2023/12/26 04:38:59;;;;;;;22.85;3.38;;;;;;;;;;4986970;28;20057;-81
2023/12/26 04:41:25;;;;;;;30.20;3.45;;;;;;;;;;4992621;28;20105;-82
2023/12/26 04:43:51;;;;;;;20.58;2.95;;;;;;;;;;4979400;28;20046;-81
2023/12/26 04:46:21;;;;;;;21.67;3.33;;;;;;;;;;4985273;28;20099;-82
2023/12/26 04:48:47;;;;;;;23.98;3.35;;;;;;;;;;4992335;28;20041;-80
2023/12/26 04:51:19;;;;;;;17.30;2.97;;;;;;;;;;4987792;28;20243;-81
2023/12/26 04:53:45;;;;;;;17.80;3.13;;;;;;;;;;4991493;28;20049;-81
2023/12/26 04:56:18;;;;;;;15.32;2.90;;;;;;;;;;4991646;28;20044;-80
2023/12/26 04:58:47;;;;;;;25.02;4.07;;;;;;;;;;4976252;28;20042;-81
2023/12/26 05:01:13;;;;;;;23.55;3.40;;;;;;;;;;4970171;28;20073;-82
2023/12/26 05:03:39;;;;;;;13.00;2.75;;;;;;;;;;4982552;28;20038;-81
2023/12/26 05:06:05;;;;;;;14.23;2.67;;;;;;;;;;4974121;28;20610;-81
2023/12/26 05:08:31;;;;;;;22.70;4.32;;;;;;;;;;4976477;28;20034;-84
2023/12/26 05:10:57;;;;;;;21.65;3.67;;;;;;;;;;4960539;28;20038;-84
2023/12/26 05:13:24;;;;;;;24.85;3.33;;;;;;;;;;4961801;28;20045;-84
2023/12/26 05:15:50;;;;;;;15.73;2.75;;;;;;;;;;4973435;28;20049;-84
2023/12/26 05:18:16;;;;;;;23.10;3.38;;;;;;;;;;4987691;28;20085;-85
2023/12/26 05:20:42;;;;;;;21.25;3.83;;;;;;;;;;4959618;28;20088;-83
2023/12/26 05:23:08;;;;;;;26.63;3.42;;;;;;;;;;4993271;28;20087;-83
2023/12/26 05:25:34;;;;;;;21.58;4.20;;;;;;;;;;4959286;28;20045;-84
2023/12/26 05:28:00;;;;;;;20.92;3.15;;;;;;;;;;4961802;28;20046;-84
2023/12/26 05:30:26;;;;;;;34.28;4.47;;;;;;;;;;4973297;28;20116;-84
2023/12/26 05:32:52;;;;;;;30.52;3.95;;;;;;;;;;4977971;28;20038;-85
2023/12/26 05:35:18;;;;;;;21.77;2.78;;;;;;;;;;4976982;28;20089;-85
2023/12/26 05:37:48;;;;;;;19.58;2.92;;;;;;;;;;4992906;28;20104;-85
2023/12/26 05:40:14;;;;;;;24.85;3.72;;;;;;;;;;4972353;28;20046;-85
2023/12/26 05:42:40;;;;;;;19.75;4.22;;;;;;;;;;4994878;28;20037;-85
2023/12/26 05:45:06;;;;;;;30.20;4.82;;;;;;;;;;4965240;28;20548;-84
2023/12/26 05:47:32;;;;;;;22.45;3.15;;;;;;;;;;4975520;28;20044;-84
2023/12/26 05:49:59;;;;;;;26.15;3.42;;;;;;;;;;4976360;28;20050;-85
2023/12/26 05:52:26;;;;;;;12.68;2.63;;;;;;;;;;4973030;28;20072;-84
2023/12/26 05:54:52;;;;;;;17.40;2.60;;;;;;;;;;4976743;28;20232;-84
2023/12/26 05:57:18;;;;;;;18.10;2.72;;;;;;;;;;4993091;28;20046;-83
2023/12/26 05:59:44;;;;;;;19.58;2.75;;;;;;;;;;4973178;28;20069;-84
2023/12/26 06:02:10;;;;;;;28.95;4.78;;;;;;;;;;4988073;28;20033;-84
2023/12/26 06:04:36;;;;;;;15.48;3.30;;;;;;;;;;4970669;28;20544;-84
2023/12/26 06:07:03;;;;;;;22.58;4.00;;;;;;;;;;4958074;28;20042;-84
2023/12/26 06:09:29;;;;;;;15.13;3.00;;;;;;;;;;4956248;28;20068;-85
2023/12/26 06:11:55;;;;;;;19.77;3.15;;;;;;;;;;4957371;28;20140;-85
2023/12/26 06:14:24;;;;;;;15.68;2.95;;;;;;;;;;4965341;28;20081;-85
2023/12/26 06:16:50;;;;;;;25.02;3.45;;;;;;;;;;4987655;28;20418;-84
2023/12/26 06:19:16;;;;;;;13.60;2.15;;;;;;;;;;4985042;28;20042;-83
2023/12/26 06:21:42;;;;;;;22.70;4.00;;;;;;;;;;4987758;28;20472;-82
2023/12/26 06:24:09;;;;;;;17.92;3.58;;;;;;;;;;4970661;28;20539;-82
2023/12/26 06:26:35;;;;;;;15.15;3.08;;;;;;;;;;4957862;28;20125;-82
2023/12/26 06:29:01;;;;;;;16.77;2.63;;;;;;;;;;4981004;28;20512;-83
2023/12/26 06:31:27;;;;;;;16.95;2.58;;;;;;;;;;4990939;28;20455;-83
2023/12/26 06:33:53;;;;;;;18.38;2.80;;;;;;;;;;4963579;28;20041;-82
2023/12/26 06:36:19;;;;;;;8.38;2.10;;;;;;;;;;4974663;28;20049;-82
2023/12/26 06:38:46;;;;;;;14.48;2.63;;;;;;;;;;4992072;28;20074;-83
2023/12/26 06:41:12;;;;;;;10.90;2.35;;;;;;;;;;4961708;28;20050;-82
2023/12/26 06:43:38;;;;;;;21.00;2.63;;;;;;;;;;4981579;28;20503;-82
2023/12/26 06:46:05;;;;;;;23.90;3.90;;;;;;;;;;4990649;28;20061;-82
2023/12/26 06:48:31;;;;;;;17.45;3.08;;;;;;;;;;4977099;28;20096;-83
2023/12/26 06:50:57;;;;;;;12.45;2.38;;;;;;;;;;4994450;28;20120;-84
2023/12/26 06:53:23;;;;;;;10.32;2.35;;;;;;;;;;4985545;28;20504;-83
2023/12/26 06:55:49;;;;;;;14.63;2.15;;;;;;;;;;4974762;28;20073;-83
2023/12/26 06:58:15;;;;;;;21.90;2.95;;;;;;;;;;4980845;28;20049;-83
2023/12/26 07:00:41;;;;;;;13.05;2.25;;;;;;;;;;4984292;28;21015;-82
2023/12/26 07:03:08;;;;;;;15.35;2.55;;;;;;;;;;5013581;28;20085;-83
2023/12/26 07:05:35;;;;;;;14.70;2.92;;;;;;;;;;4979210;28;20045;-83
2023/12/26 07:08:01;;;;;;;13.50;2.60;;;;;;;;;;4985520;28;20092;-83
2023/12/26 07:10:27;;;;;;;21.25;3.45;;;;;;;;;;4987699;28;20046;-82
2023/12/26 07:12:53;;;;;;;16.63;2.80;;;;;;;;;;4975524;28;20081;-82
2023/12/26 07:15:20;;;;;;;18.30;2.72;;;;;;;;;;4977865;28;20080;-81
2023/12/26 07:17:46;;;;;;;20.80;2.95;;;;;;;;;;4979309;28;20052;-81
2023/12/26 07:20:13;;;;;;;16.40;2.78;;;;;;;;;;4975861;28;20625;-82
2023/12/26 07:22:39;;;;;;;21.50;2.92;;;;;;;;;;4983755;28;20064;-81
2023/12/26 07:25:05;;;;;;;26.92;3.75;;;;;;;;;;4965799;28;20052;-81
2023/12/26 07:27:31;;;;;;;14.00;2.22;;;;;;;;;;4992343;28;20045;-80
2023/12/26 07:29:58;;;;;;;29.80;4.13;;;;;;;;;;4998840;28;20132;-85
2023/12/26 07:32:24;;;;;;;10.38;2.28;;;;;;;;;;4997259;28;20041;-85
2023/12/26 07:34:50;;;;;;;17.83;4.32;;;;;;;;;;4973763;28;20103;-84
2023/12/26 07:37:16;;;;;;;22.38;3.50;;;;;;;;;;4968581;28;20091;-85
2023/12/26 07:39:45;;;;;;;14.80;2.33;;;;;;;;;;5009918;28;20053;-86
2023/12/26 07:42:11;;;;;;;11.50;2.58;;;;;;;;;;4987222;28;20053;-84
2023/12/26 07:44:37;;;;;;;19.17;3.35;;;;;;;;;;4990728;28;20049;-85
2023/12/26 07:47:03;;;;;;;33.78;4.00;;;;;;;;;;4988524;28;20034;-83
2023/12/26 07:49:30;;;;;;;21.20;4.00;;;;;;;;;;4989684;28;20551;-84
2023/12/26 07:51:56;;;;;;;20.10;2.75;;;;;;;;;;4972013;28;20462;-84
2023/12/26 07:54:22;;;;;;;24.90;3.90;;;;;;;;;;4985193;28;20527;-83
2023/12/26 07:56:48;;;;;;;26.52;2.95;;;;;;;;;;4957367;28;20111;-84
2023/12/26 07:59:14;;;;;;;16.10;3.20;;;;;;;;;;4968599;28;20084;-84
2023/12/26 08:01:41;;;;;;;18.63;3.20;;;;;;;;;;4988756;28;20149;-85
2023/12/26 08:04:07;;;;;;;21.90;4.03;;;;;;;;;;4985984;28;20489;-83
2023/12/26 08:06:33;;;;;;;22.52;3.47;;;;;;;;;;4972551;28;20427;-84
2023/12/26 08:08:59;;;;;;;19.67;3.47;;;;;;;;;;4984041;28;20062;-84
2023/12/26 08:11:25;;;;;;;23.13;4.00;;;;;;;;;;4972245;28;20046;-84
2023/12/26 08:13:52;;;;;;;19.60;3.63;;;;;;;;;;4984743;28;20099;-83
2023/12/26 08:16:19;;;;;;;18.77;3.55;;;;;;;;;;4972935;28;20095;-84
2023/12/26 08:18:45;;;;;;;20.83;3.20;;;;;;;;;;4987140;28;20052;-84
2023/12/26 08:21:11;;;;;;;21.17;3.03;;;;;;;;;;4984784;28;20042;-83
2023/12/26 08:23:37;;;;;;;17.88;3.00;;;;;;;;;;4986478;28;20034;-82
2023/12/26 08:26:07;;;;;;;18.90;3.55;;;;;;;;;;4974695;28;20117;-83
2023/12/26 08:28:33;;;;;;;15.30;2.85;;;;;;;;;;4968504;28;20458;-82
2023/12/26 08:30:59;;;;;;;29.75;3.30;;;;;;;;;;4984289;28;20493;-82
2023/12/26 08:33:25;;;;;;;25.30;3.25;;;;;;;;;;4970229;28;20078;-83
2023/12/26 08:35:52;;;;;;;17.83;2.72;;;;;;;;;;4982376;28;20057;-83
2023/12/26 08:38:18;;;;;;;18.30;3.17;;;;;;;;;;4982076;28;20088;-83
2023/12/26 08:40:44;;;;;;;20.73;3.15;;;;;;;;;;4982953;28;20096;-84
2023/12/26 08:43:10;;;;;;;11.88;2.78;;;;;;;;;;4984044;28;20037;-84
2023/12/26 08:45:36;;;;;;;19.17;2.97;;;;;;;;;;4966952;28;20052;-84
2023/12/26 08:48:03;;;;;;;12.93;3.03;;;;;;;;;;4970445;28;20037;-84
2023/12/26 08:50:29;;;;;;;18.67;2.72;;;;;;;;;;4974221;28;20049;-84
2023/12/26 08:52:55;;;;;;;15.68;2.88;;;;;;;;;;4982688;28;20081;-85
2023/12/26 08:55:21;;;;;;;17.52;2.65;;;;;;;;;;4989232;28;20412;-83
2023/12/26 08:57:47;;;;;;;19.08;3.60;;;;;;;;;;4984274;28;20435;-84
2023/12/26 09:00:14;;;;;;;18.80;2.80;;;;;;;;;;4970785;28;20041;-84
2023/12/26 09:02:42;;;;;;;19.20;3.55;;;;;;;;;;4984235;28;20496;-84
2023/12/26 09:05:10;;;;;;;21.33;3.05;;;;;;;;;;4984339;28;20044;-84
2023/12/26 09:07:36;;;;;;;13.25;2.53;;;;;;;;;;4958408;28;20111;-84
2023/12/26 09:10:03;;;;;;;14.20;2.75;;;;;;;;;;4970730;28;20054;-84
2023/12/26 09:12:29;;;;;;;27.40;3.50;;;;;;;;;;4986311;28;20050;-83
2023/12/26 09:14:55;;;;;;;21.05;3.13;;;;;;;;;;4985510;28;20045;-84
2023/12/26 09:17:21;;;;;;;15.23;3.08;;;;;;;;;;4984732;28;20139;-84
2023/12/26 09:19:47;;;;;;;15.25;3.13;;;;;;;;;;4953161;28;20499;-84
2023/12/26 09:22:13;;;;;;;17.70;2.60;;;;;;;;;;4985622;28;20046;-84
2023/12/26 09:24:43;;;;;;;17.95;3.95;;;;;;;;;;4954284;28;20049;-84
2023/12/26 09:27:09;;;;;;;32.58;4.53;;;;;;;;;;4972128;28;20099;-85
2023/12/26 09:29:35;;;;;;;19.55;3.25;;;;;;;;;;4986884;28;20162;-84
2023/12/26 09:32:01;;;;;;;16.42;2.65;;;;;;;;;;4986444;28;20046;-84
2023/12/26 09:34:27;;;;;;;14.55;2.28;;;;;;;;;;4984786;28;20054;-83
2023/12/26 09:36:53;;;;;;;16.65;3.40;;;;;;;;;;4970637;28;20050;-85
2023/12/26 09:39:19;;;;;;;17.92;2.95;;;;;;;;;;4972226;28;20053;-84
2023/12/26 09:41:49;;;;;;;11.43;2.83;;;;;;;;;;4983931;28;20200;-85
2023/12/26 09:44:16;;;;;;;25.15;3.65;;;;;;;;;;4971464;28;20045;-83
2023/12/26 09:46:42;;;;;;;16.85;2.55;;;;;;;;;;4971015;28;20479;-84
2023/12/26 09:49:09;;;;;;;19.15;2.92;;;;;;;;;;4971227;28;20095;-84
2023/12/26 09:51:37;;;;;;;17.52;3.15;;;;;;;;;;4986220;28;20045;-84
2023/12/26 09:54:04;;;;;;;14.88;3.45;;;;;;;;;;4987122;28;20061;-83
2023/12/26 09:56:32;;;;;;;19.33;3.40;;;;;;;;;;4969618;28;20046;-84
2023/12/26 09:59:01;;;;;;;24.13;3.80;;;;;;;;;;4986212;28;20048;-83
2023/12/26 10:01:27;;;;;;;11.98;2.58;;;;;;;;;;4987431;28;20104;-83
2023/12/26 10:03:56;;;;;;;14.13;2.58;;;;;;;;;;4984238;28;21452;-84
2023/12/26 10:06:22;;;;;;;16.90;3.15;;;;;;;;;;4967746;28;20125;-83
2023/12/26 10:08:48;;;;;;;14.45;3.30;;;;;;;;;;4968866;28;20034;-84
2023/12/26 10:11:15;;;;;;;20.67;3.90;;;;;;;;;;4969582;28;20038;-84
2023/12/26 10:13:53;;;;;;;15.85;3.35;;;;;;;;;;4984084;28;20489;-83
2023/12/26 10:16:20;;;;;;;25.20;4.05;;;;;;;;;;4968806;28;20088;-84
2023/12/26 10:18:46;;;;;;;20.88;2.88;;;;;;;;;;4969593;28;20044;-84
2023/12/26 10:21:13;;;;;;;14.35;2.45;;;;;;;;;;4986598;28;20057;-83
2023/12/26 10:23:39;;;;;;;18.75;3.00;;;;;;;;;;4985000;28;20077;-84
2023/12/26 10:26:05;;;;;;;21.60;4.18;;;;;;;;;;4989722;28;20060;-84
2023/12/26 10:28:38;;;;;;;25.67;4.00;;;;;;;;;;4953530;28;20060;-84
2023/12/26 10:31:20;;;;;;;32.13;4.28;;;;;;;;;;4983755;28;20050;-85
2023/12/26 10:33:46;;;;;;;19.80;3.47;;;;;;;;;;4986278;28;20042;-84
2023/12/26 10:36:12;;;;;;;23.42;3.35;;;;;;;;;;4967951;28;20062;-86
2023/12/26 10:38:39;;;;;;;18.27;3.42;;;;;;;;;;4953877;28;20564;-86
2023/12/26 10:41:11;;;;;;;18.70;3.90;;;;;;;;;;4967938;28;20433;-84
2023/12/26 10:43:40;;;;;;;20.60;2.88;;;;;;;;;;4979113;28;20097;-84
2023/12/26 10:46:07;;;;;;;14.98;3.00;;;;;;;;;;4961276;28;20096;-84
2023/12/26 10:48:34;;;;;;;19.45;4.55;;;;;;;;;;4984426;28;20048;-85
2023/12/26 10:51:00;;;;;;;20.48;3.58;;;;;;;;;;4972802;28;20029;-83
2023/12/26 10:53:40;;;;;;;17.48;4.28;;;;;;;;;;4985721;28;20477;-83
2023/12/26 10:56:06;;;;;;;16.85;2.92;;;;;;;;;;4985184;28;20054;-83
2023/12/26 10:58:33;;;;;;;22.77;3.40;;;;;;;;;;4953677;28;20045;-83
2023/12/26 13:51:23;;;;;;;9.75;1.58;;;;;;;;;;4983503;28;20497;-82
2023/12/26 13:53:51;;;;;;;7.40;1.15;;;;;;;;;;4984211;28;20045;-83
2023/12/26 13:56:19;;;;;;;9.63;1.08;;;;;;;;;;4988642;28;20042;-83
2023/12/26 13:58:45;;;;;;;8.30;2.03;;;;;;;;;;4965094;28;20046;-84
2023/12/26 14:01:12;;;;;;;7.68;1.40;;;;;;;;;;4956014;28;20033;-83
2023/12/26 14:03:38;;;;;;;12.35;1.35;;;;;;;;;;4955652;28;20081;-83
2023/12/26 14:06:05;;;;;;;8.52;1.20;;;;;;;;;;4984405;28;20062;-82
2023/12/26 14:08:31;;;;;;;10.13;1.45;;;;;;;;;;4983427;28;20062;-83
2023/12/26 14:10:57;;;;;;;7.75;1.08;;;;;;;;;;4965501;28;20133;-83
2023/12/26 14:13:23;;;;;;;11.15;1.60;;;;;;;;;;4971171;28;20487;-83
2023/12/26 14:15:49;;;;;;;7.78;1.42;;;;;;;;;;4950662;28;20054;-83
2023/12/26 14:18:15;;;;;;;7.28;1.05;;;;;;;;;;4969694;28;20076;-83
2023/12/26 14:20:41;;;;;;;6.10;1.20;;;;;;;;;;4985090;28;20481;-85
2023/12/26 14:23:07;;;;;;;10.88;1.50;;;;;;;;;;4967340;28;20050;-82
2023/12/26 14:25:34;;;;;;;5.97;1.52;;;;;;;;;;4968704;28;20046;-82
2023/12/26 14:28:00;;;;;;;11.25;1.20;;;;;;;;;;4964044;28;20053;-83
2023/12/26 14:30:26;;;;;;;9.68;1.40;;;;;;;;;;4951524;28;20113;-83
2023/12/26 14:32:52;;;;;;;10.85;1.10;;;;;;;;;;4967218;28;20382;-83
2023/12/26 14:35:18;;;;;;;7.20;1.60;;;;;;;;;;4950686;28;20693;-83
2023/12/26 14:37:44;;;;;;;7.00;2.28;;;;;;;;;;4967594;28;20058;-84
2023/12/26 14:40:10;;;;;;;8.57;1.83;;;;;;;;;;4984753;28;20145;-83
2023/12/26 14:42:36;;;;;;;5.75;2.10;;;;;;;;;;4983485;28;20073;-82
2023/12/26 14:45:03;;;;;;;9.75;1.35;;;;;;;;;;4982694;28;20081;-83
2023/12/26 14:47:29;;;;;;;13.75;2.58;;;;;;;;;;4984784;28;20057;-83
2023/12/26 14:49:55;;;;;;;9.60;1.75;;;;;;;;;;4984252;28;20046;-83
2023/12/26 14:52:21;;;;;;;7.18;1.92;;;;;;;;;;4988479;28;20057;-83
2023/12/26 14:54:47;;;;;;;12.15;1.80;;;;;;;;;;4969575;28;20054;-83
2023/12/26 14:57:14;;;;;;;9.85;1.77;;;;;;;;;;4986005;28;20044;-81
2023/12/26 14:59:40;;;;;;;12.45;2.38;;;;;;;;;;4966306;28;20046;-81
2023/12/26 15:02:06;;;;;;;9.20;1.33;;;;;;;;;;4968096;28;20049;-81
2023/12/26 15:04:32;;;;;;;14.15;1.10;;;;;;;;;;4955946;28;20057;-82
2023/12/26 15:07:01;;;;;;;5.40;1.00;;;;;;;;;;4952834;28;20394;-82
2023/12/26 15:09:28;;;;;;;6.68;1.25;;;;;;;;;;4980609;28;20073;-81
2023/12/26 15:11:54;;;;;;;10.35;1.58;;;;;;;;;;4972663;28;20037;-82
2023/12/26 15:14:20;;;;;;;9.90;2.80;;;;;;;;;;4958892;28;20117;-82
2023/12/26 15:16:46;;;;;;;7.85;1.48;;;;;;;;;;4950511;28;20046;-82
2023/12/26 15:19:12;;;;;;;9.15;1.52;;;;;;;;;;4972710;28;20046;-82
2023/12/26 15:21:40;;;;;;;12.23;2.40;;;;;;;;;;4984569;28;20045;-82
2023/12/26 15:24:06;;;;;;;14.18;1.67;;;;;;;;;;4965966;28;20095;-83
2023/12/26 15:26:32;;;;;;;8.48;1.77;;;;;;;;;;4953401;28;20042;-81
2023/12/26 15:28:58;;;;;;;11.15;1.90;;;;;;;;;;4984322;28;20080;-86
2023/12/26 15:31:24;;;;;;;16.38;2.75;;;;;;;;;;4973271;28;20432;-82
2023/12/26 15:33:51;;;;;;;9.52;1.58;;;;;;;;;;4988047;28;20034;-82
2023/12/26 15:36:17;;;;;;;10.82;1.80;;;;;;;;;;4954961;28;20108;-82
2023/12/26 15:38:44;;;;;;;19.25;2.92;;;;;;;;;;4973468;28;20053;-82
2023/12/26 15:41:10;;;;;;;18.98;2.15;;;;;;;;;;4988456;28;20049;-81
2023/12/26 15:43:36;;;;;;;14.90;1.70;;;;;;;;;;4971586;28;20041;-80
2023/12/26 15:46:02;;;;;;;21.38;2.25;;;;;;;;;;4985249;28;20065;-82
2023/12/26 15:48:29;;;;;;;15.07;3.03;;;;;;;;;;4992131;28;20034;-80
2023/12/26 15:50:55;;;;;;;15.32;2.13;;;;;;;;;;4984290;28;20467;-80
2023/12/26 15:53:21;;;;;;;10.52;2.13;;;;;;;;;;4972170;28;20473;-79
2023/12/26 15:55:47;;;;;;;14.75;2.05;;;;;;;;;;4957928;28;20068;-82
2023/12/26 15:58:14;;;;;;;18.45;2.13;;;;;;;;;;4970674;28;20080;-79
2023/12/26 16:00:40;;;;;;;9.35;2.10;;;;;;;;;;4969131;28;20141;-79
2023/12/26 16:03:06;;;;;;;24.98;3.30;;;;;;;;;;4955869;28;20042;-79
2023/12/26 16:05:34;;;;;;;16.48;1.80;;;;;;;;;;4953945;28;20050;-81
2023/12/26 16:08:03;;;;;;;15.25;2.17;;;;;;;;;;4988012;28;20053;-80
2023/12/26 16:10:29;;;;;;;15.50;2.63;;;;;;;;;;4971639;28;20125;-80
2023/12/26 16:12:55;;;;;;;14.90;2.30;;;;;;;;;;4982860;28;20458;-80
2023/12/26 16:15:21;;;;;;;12.00;3.20;;;;;;;;;;4989146;28;20042;-80
2023/12/26 16:17:47;;;;;;;14.50;2.85;;;;;;;;;;4971484;28;20049;-82
2023/12/26 16:20:13;;;;;;;13.50;2.38;;;;;;;;;;4971238;28;20046;-80
2023/12/26 16:22:39;;;;;;;20.00;2.35;;;;;;;;;;4973757;28;20046;-81
2023/12/26 16:25:06;;;;;;;21.83;2.83;;;;;;;;;;4954674;28;20077;-82
2023/12/26 16:27:33;;;;;;;15.85;3.55;;;;;;;;;;4973785;28;20049;-84
2023/12/26 16:29:59;;;;;;;13.27;2.53;;;;;;;;;;4989000;28;20449;-83
2023/12/26 16:32:25;;;;;;;12.05;2.20;;;;;;;;;;4984381;28;20042;-83
2023/12/26 16:34:52;;;;;;;19.25;1.77;;;;;;;;;;4973018;28;20502;-83
2023/12/26 16:37:18;;;;;;;13.93;1.83;;;;;;;;;;4969493;28;20054;-83
2023/12/26 16:39:44;;;;;;;18.92;2.65;;;;;;;;;;4987197;28;20049;-82
2023/12/26 16:42:11;;;;;;;15.30;2.15;;;;;;;;;;4987170;28;20096;-82
2023/12/26 16:44:42;;;;;;;12.63;2.00;;;;;;;;;;4982918;28;20420;-83
2023/12/26 16:47:12;;;;;;;12.20;2.13;;;;;;;;;;4988165;28;20073;-83
2023/12/26 16:49:40;;;;;;;12.23;2.33;;;;;;;;;;4989972;28;20549;-83
2023/12/26 16:52:06;;;;;;;16.35;1.90;;;;;;;;;;4991315;28;20404;-82
2023/12/26 16:54:35;;;;;;;11.25;1.70;;;;;;;;;;4976665;28;20065;-82
2023/12/26 16:57:01;;;;;;;14.07;2.03;;;;;;;;;;4988488;28;20045;-80
2023/12/26 16:59:27;;;;;;;9.30;1.45;;;;;;;;;;4973818;28;20034;-79
2023/12/26 17:01:53;;;;;;;17.85;3.95;;;;;;;;;;4991612;28;20041;-80
2023/12/26 17:04:19;;;;;;;16.13;2.25;;;;;;;;;;4969760;28;20044;-81
2023/12/26 17:06:45;;;;;;;14.35;1.90;;;;;;;;;;4970797;28;20034;-83
2023/12/26 17:09:12;;;;;;;11.55;1.60;;;;;;;;;;4973658;28;20038;-81
2023/12/26 17:11:38;;;;;;;11.65;1.63;;;;;;;;;;4974056;28;20444;-81
2023/12/26 17:14:04;;;;;;;10.32;1.45;;;;;;;;;;4970988;28;20056;-82
2023/12/26 17:16:30;;;;;;;11.70;1.90;;;;;;;;;;4988539;28;20042;-81
2023/12/26 17:18:56;;;;;;;9.25;2.40;;;;;;;;;;4986924;28;20555;-82